createdAt,value
2022-08-19T00:00:30.790Z,8.13
2022-08-19T00:05:32.821Z,9.55
2022-08-19T00:10:35.079Z,9.07
2022-08-19T00:15:36.927Z,8.88
2022-08-19T00:20:41.267Z,9.20
2022-08-19T00:25:43.158Z,9.45
2022-08-19T00:30:52.735Z,9.30
2022-08-19T00:35:56.377Z,10.48
2022-08-19T00:40:58.249Z,9.75
2022-08-19T00:46:00.505Z,9.95
2022-08-19T00:51:03.385Z,10.07
2022-08-19T00:56:07.232Z,10.85
2022-08-19T01:01:09.239Z,12.07
2022-08-19T01:06:14.095Z,10.77
2022-08-19T01:11:22.189Z,15.48
2022-08-19T01:16:28.200Z,17.10
2022-08-19T01:21:40.954Z,19.40
2022-08-19T01:26:44.781Z,17.73
2022-08-19T01:31:50.103Z,16.23
2022-08-19T01:36:52.000Z,25.13
2022-08-19T01:41:55.321Z,23.67
2022-08-19T01:46:57.584Z,21.08
2022-08-19T01:52:01.730Z,19.73
2022-08-19T01:57:09.423Z,21.52
2022-08-19T02:02:11.460Z,21.02
2022-08-19T02:07:13.298Z,20.20
2022-08-19T02:12:17.274Z,20.00
2022-08-19T02:17:19.251Z,19.15
2022-08-19T02:22:21.534Z,20.05
2022-08-19T02:27:23.826Z,20.77
2022-08-19T02:32:25.718Z,21.27
2022-08-19T02:37:46.198Z,21.13
2022-08-19T02:42:48.253Z,21.98
2022-08-19T02:47:50.297Z,19.13
2022-08-19T02:52:52.391Z,20.58
2022-08-19T02:57:54.317Z,20.00
2022-08-19T03:02:57.114Z,22.42
2022-08-19T03:07:58.922Z,23.98
2022-08-19T03:13:00.790Z,22.77
2022-08-19T03:18:06.506Z,24.30
2022-08-19T03:23:11.575Z,26.33
2022-08-19T03:28:15.446Z,26.02
2022-08-19T03:33:18.106Z,27.83
2022-08-19T03:38:20.094Z,26.00
2022-08-19T03:43:22.137Z,23.45
2022-08-19T03:48:23.933Z,24.83
2022-08-19T03:53:27.790Z,23.25
2022-08-19T03:58:30.770Z,24.88
2022-08-19T04:03:32.585Z,23.00
2022-08-19T04:08:34.402Z,25.27
2022-08-19T04:13:36.354Z,23.50
2022-08-19T04:18:40.149Z,27.95
2022-08-19T04:23:44.774Z,31.48
2022-08-19T04:28:47.826Z,29.13
2022-08-19T04:33:49.827Z,27.88
2022-08-19T04:38:55.859Z,30.73
2022-08-19T04:44:01.230Z,30.55
2022-08-19T04:54:33.743Z,30.50
2022-08-19T04:59:40.167Z,31.58
2022-08-19T05:04:41.989Z,29.92
2022-08-19T05:09:57.736Z,29.10
2022-08-19T05:15:01.277Z,31.80
2022-08-19T05:20:23.562Z,31.52
2022-08-19T05:25:26.699Z,30.08
2022-08-19T05:30:46.111Z,30.20
2022-08-19T05:35:50.387Z,29.73
2022-08-19T05:40:52.244Z,34.50
2022-08-19T05:45:54.057Z,32.95
2022-08-19T05:50:55.884Z,32.88
2022-08-19T05:55:57.712Z,35.65
2022-08-19T06:01:05.378Z,32.45
2022-08-19T06:06:09.922Z,33.05
2022-08-19T06:11:20.711Z,33.22
2022-08-19T06:16:23.518Z,34.30
2022-08-19T06:21:28.320Z,33.33
2022-08-19T06:26:30.409Z,34.47
2022-08-19T06:31:34.550Z,32.47
2022-08-19T06:36:41.550Z,31.67
2022-08-19T06:41:51.530Z,32.22
2022-08-19T06:46:56.005Z,33.10
2022-08-19T06:51:59.439Z,33.25
2022-08-19T06:57:04.178Z,35.85
2022-08-19T07:02:07.513Z,36.30
2022-08-19T07:07:20.151Z,36.03
2022-08-19T07:12:23.040Z,34.05
2022-08-19T07:17:24.908Z,34.60
2022-08-19T07:22:27.114Z,31.58
2022-08-19T07:27:29.002Z,34.63
2022-08-19T07:32:35.356Z,33.25
2022-08-19T07:37:38.223Z,30.02
2022-08-19T07:42:40.198Z,34.55
2022-08-19T07:47:48.333Z,34.85
2022-08-19T07:52:52.789Z,32.35
2022-08-19T07:57:54.672Z,33.65
2022-08-19T08:02:56.579Z,32.97
2022-08-19T08:08:27.506Z,34.53
2022-08-19T08:13:29.686Z,33.13
2022-08-19T08:18:32.256Z,32.42
2022-08-19T08:23:34.185Z,31.95
2022-08-19T08:28:36.125Z,32.30
2022-08-19T08:33:38.086Z,31.13
2022-08-19T08:38:41.952Z,28.60
2022-08-19T08:43:47.402Z,28.10
2022-08-19T08:48:58.648Z,28.38
2022-08-19T08:54:05.944Z,27.10
2022-08-19T08:59:20.489Z,23.63
2022-08-19T09:04:23.857Z,23.40
2022-08-19T09:09:38.029Z,21.17
2022-08-19T09:19:57.543Z,26.15
2022-08-19T09:24:59.442Z,24.40
2022-08-19T09:30:01.332Z,22.33
2022-08-19T09:35:03.561Z,25.48
2022-08-19T09:40:12.356Z,24.00
2022-08-19T09:45:22.525Z,23.92
2022-08-19T09:50:25.384Z,20.33
2022-08-19T09:55:30.945Z,19.80
2022-08-19T10:00:34.412Z,17.58
2022-08-19T10:05:54.627Z,17.48
2022-08-19T10:10:59.029Z,20.98
2022-08-19T10:16:10.590Z,17.85
2022-08-19T10:21:19.606Z,21.75
2022-08-19T10:26:27.614Z,20.50
2022-08-19T10:32:01.058Z,22.02
2022-08-19T10:36:56.553Z,20.17
2022-08-19T10:42:07.670Z,17.13
2022-08-19T10:47:17.631Z,22.07
2022-08-19T10:52:38.712Z,20.33
2022-08-19T10:58:01.212Z,17.17
2022-08-19T11:03:04.006Z,18.65
2022-08-19T11:08:07.220Z,16.70
2022-08-19T11:13:26.031Z,19.23
2022-08-19T11:18:28.129Z,16.10
2022-08-19T11:23:29.933Z,14.32
2022-08-19T11:28:31.814Z,15.40
2022-08-19T11:33:33.731Z,17.23
2022-08-19T11:38:36.786Z,15.90
2022-08-19T11:43:38.718Z,14.57
2022-08-19T11:48:40.646Z,14.65
2022-08-19T11:53:43.014Z,14.13
2022-08-19T11:58:45.196Z,13.50
2022-08-19T12:03:49.470Z,12.40
2022-08-19T12:08:51.332Z,13.65
2022-08-19T12:13:54.597Z,14.38
2022-08-19T12:18:57.466Z,14.25
2022-08-19T12:24:01.028Z,14.65
2022-08-19T12:29:03.524Z,13.48
2022-08-19T12:34:05.350Z,13.18
2022-08-19T12:39:09.464Z,13.43
2022-08-19T12:44:13.362Z,12.80
2022-08-19T12:49:21.922Z,14.63
2022-08-19T12:54:38.933Z,13.60
2022-08-19T12:59:40.809Z,13.38
2022-08-19T13:04:42.721Z,16.25
2022-08-19T13:09:45.624Z,16.30
2022-08-19T13:14:51.890Z,14.90
2022-08-19T13:19:53.840Z,15.88
2022-08-19T13:24:55.689Z,14.70
2022-08-19T13:30:16.027Z,17.65
2022-08-19T13:35:18.321Z,15.50
2022-08-19T13:40:24.941Z,16.08
2022-08-19T13:45:29.866Z,15.40
2022-08-19T13:50:32.496Z,15.25
2022-08-19T13:55:35.090Z,16.08
2022-08-19T14:00:40.343Z,15.00
2022-08-19T14:05:42.263Z,15.40
2022-08-19T14:10:48.162Z,13.38
2022-08-19T14:15:51.106Z,13.35
2022-08-19T14:20:53.606Z,14.18
2022-08-19T14:26:05.298Z,13.63
2022-08-19T14:31:07.340Z,11.80
2022-08-19T14:36:09.346Z,11.23
2022-08-19T14:41:18.387Z,11.07
2022-08-19T14:46:28.281Z,12.23
2022-08-19T14:51:32.312Z,12.77
2022-08-19T14:56:34.384Z,10.52
2022-08-19T15:01:36.565Z,11.95
2022-08-19T15:06:38.827Z,12.98
2022-08-19T15:11:40.822Z,11.18
2022-08-19T15:16:42.831Z,12.18
2022-08-19T15:21:44.750Z,11.35
2022-08-19T15:26:46.601Z,13.02
2022-08-19T15:31:51.601Z,11.25
2022-08-19T15:36:54.725Z,10.68
2022-08-19T15:41:56.553Z,10.85
2022-08-19T15:46:58.502Z,11.18
2022-08-19T15:52:01.543Z,11.52
2022-08-19T15:57:21.536Z,11.13
2022-08-19T16:02:46.235Z,11.40
2022-08-19T16:07:48.318Z,10.07
2022-08-19T16:12:50.390Z,10.60
2022-08-19T16:17:57.199Z,10.25
2022-08-19T16:22:59.964Z,11.38
2022-08-19T16:28:07.792Z,10.27
2022-08-19T16:33:11.501Z,11.00
2022-08-19T16:38:13.342Z,9.52
2022-08-19T16:43:15.202Z,10.25
2022-08-19T16:48:17.384Z,9.68
2022-08-19T16:53:22.286Z,9.65
2022-08-19T16:58:28.200Z,10.18
2022-08-19T17:03:35.995Z,9.85
2022-08-19T17:08:38.820Z,10.02
2022-08-19T17:13:40.706Z,9.32
2022-08-19T17:18:45.566Z,10.35
2022-08-19T17:23:47.510Z,9.85
2022-08-19T17:28:51.538Z,8.65
2022-08-19T17:33:55.041Z,9.55
2022-08-19T17:39:00.539Z,9.43
2022-08-19T17:44:03.735Z,10.27
2022-08-19T17:49:06.853Z,9.90
2022-08-19T17:54:11.095Z,9.63
2022-08-19T17:59:14.568Z,10.20
2022-08-19T18:04:17.341Z,9.90
2022-08-19T18:09:20.769Z,9.80
2022-08-19T18:14:33.518Z,9.38
2022-08-19T18:19:41.874Z,10.65
2022-08-19T18:24:45.959Z,10.32
2022-08-19T18:29:48.069Z,12.40
2022-08-19T18:34:49.928Z,11.10
2022-08-19T18:40:10.290Z,11.05
2022-08-19T18:45:31.234Z,12.13
2022-08-19T18:50:33.121Z,11.45
2022-08-19T18:55:34.941Z,11.50
2022-08-19T19:00:37.458Z,10.20
2022-08-19T19:05:42.246Z,11.52
2022-08-19T19:10:44.358Z,10.95
2022-08-19T19:15:47.326Z,11.40
2022-08-19T19:20:49.158Z,11.32
2022-08-19T19:25:52.358Z,12.63
2022-08-19T19:30:58.450Z,12.85
2022-08-19T19:36:00.320Z,12.82
2022-08-19T19:41:02.717Z,12.57
2022-08-19T19:46:04.673Z,12.13
2022-08-19T19:51:10.573Z,11.60
2022-08-19T19:56:13.029Z,12.75
2022-08-19T20:01:21.087Z,11.50
2022-08-19T20:06:24.891Z,14.00
2022-08-19T20:11:32.900Z,12.57
2022-08-19T20:16:34.845Z,12.93
2022-08-19T20:21:41.678Z,12.98
2022-08-19T20:26:44.429Z,13.32
2022-08-19T20:31:57.321Z,13.48
2022-08-19T20:36:59.942Z,12.82
2022-08-19T20:42:01.768Z,11.07
2022-08-19T20:47:04.277Z,11.60
2022-08-19T20:52:06.500Z,11.38
2022-08-19T20:57:08.759Z,10.20
2022-08-19T21:02:11.193Z,12.27
2022-08-19T21:07:13.070Z,12.13
2022-08-19T21:12:15.095Z,12.57
2022-08-19T21:17:17.137Z,12.05
2022-08-19T21:22:18.973Z,13.93
2022-08-19T21:27:21.049Z,14.95
2022-08-19T21:32:23.738Z,12.98
2022-08-19T21:37:26.256Z,15.95
2022-08-19T21:42:28.222Z,16.10
2022-08-19T21:47:30.045Z,16.27
2022-08-19T21:52:32.257Z,16.38
2022-08-19T21:57:34.618Z,16.15
2022-08-19T22:02:38.110Z,14.85
2022-08-19T22:07:39.984Z,17.30
2022-08-19T22:12:51.287Z,18.15
2022-08-19T22:17:54.442Z,17.63
2022-08-19T22:23:00.360Z,17.33
2022-08-19T22:28:05.333Z,17.45
2022-08-19T22:33:11.574Z,18.85
2022-08-19T22:38:14.393Z,20.38
2022-08-19T22:43:19.783Z,20.92
2022-08-19T22:48:24.454Z,21.08
2022-08-19T22:53:27.130Z,21.00
2022-08-19T22:58:29.735Z,19.70
2022-08-19T23:03:33.322Z,19.75
2022-08-19T23:08:37.391Z,17.65
2022-08-19T23:13:40.806Z,14.95
2022-08-19T23:18:42.717Z,14.50
2022-08-19T23:23:44.791Z,12.27
2022-08-19T23:29:05.226Z,10.77
2022-08-19T23:34:07.297Z,11.20
2022-08-19T23:39:09.379Z,11.98
2022-08-19T23:44:14.866Z,12.00
2022-08-19T23:49:17.312Z,12.07
2022-08-19T23:54:19.186Z,12.60
2022-08-19T23:59:21.195Z,12.40
